Time;durP1;ratioP1;P1;durP2;ratioP2;P2;SDS_P1;SDS_P2;PMS_P1;PMS_P2;Temp;Humidity;BMP_temperature;BMP_pressure;BME280_temperature;BME280_humidity;BME280_pressure;Samples;Min_cycle;Max_cycle;Signal;HPM_P1;HPM_P2
2021/07/16 00:01:02;;;;;;;32.78;15.65;;;21.00;99.90;;;;;;5051986;28;20087;-76
2021/07/16 00:03:28;;;;;;;36.55;15.73;;;20.90;99.90;;;;;;5050695;28;20315;-77
2021/07/16 00:05:53;;;;;;;28.77;14.68;;;20.90;99.90;;;;;;5052290;28;20035;-77
2021/07/16 00:08:19;;;;;;;32.60;15.32;;;21.00;99.90;;;;;;5067074;28;20021;-77
2021/07/16 00:10:46;;;;;;;36.13;15.73;;;21.00;99.90;;;;;;5051933;28;20036;-75
2021/07/16 00:13:11;;;;;;;38.22;14.57;;;20.90;99.90;;;;;;5051483;28;20109;-76
2021/07/16 00:15:37;;;;;;;35.22;15.75;;;20.90;99.90;;;;;;5051443;28;20137;-77
2021/07/16 00:18:05;;;;;;;35.13;15.38;;;20.90;99.90;;;;;;5051979;28;20048;-76
2021/07/16 00:20:31;;;;;;;39.25;16.15;;;20.90;99.90;;;;;;5050405;28;20033;-77
2021/07/16 00:22:56;;;;;;;30.33;14.15;;;21.00;99.90;;;;;;5051406;28;20478;-78
2021/07/16 00:25:22;;;;;;;34.65;14.38;;;21.00;99.90;;;;;;5051324;28;20032;-77
2021/07/16 00:27:48;;;;;;;36.55;15.48;;;21.00;99.90;;;;;;5051395;28;20325;-77
2021/07/16 00:30:14;;;;;;;33.80;15.52;;;21.00;99.90;;;;;;5052535;28;20075;-75
2021/07/16 00:32:40;;;;;;;33.20;15.43;;;20.90;99.90;;;;;;5051316;28;20375;-76
2021/07/16 00:35:07;;;;;;;44.20;16.52;;;21.00;99.90;;;;;;5051336;28;20060;-76
2021/07/16 00:37:33;;;;;;;48.25;18.60;;;21.00;99.90;;;;;;5051328;28;20478;-75
2021/07/16 00:39:58;;;;;;;41.90;16.23;;;20.90;99.90;;;;;;5057128;28;20048;-77
2021/07/16 00:42:24;;;;;;;36.95;16.42;;;20.90;99.90;;;;;;5091057;28;20012;-75
2021/07/16 00:44:50;;;;;;;35.63;16.85;;;20.70;99.90;;;;;;5091713;28;20717;-75
2021/07/16 00:47:15;;;;;;;39.10;16.67;;;20.80;99.90;;;;;;5091069;28;20040;-75
2021/07/16 00:49:41;;;;;;;36.78;15.10;;;20.80;99.90;;;;;;5091137;28;20063;-77
2021/07/16 00:52:08;;;;;;;36.60;15.68;;;20.80;99.90;;;;;;5073438;28;20421;-75
2021/07/16 00:54:33;;;;;;;36.53;16.48;;;20.80;99.90;;;;;;5091125;28;20035;-76
2021/07/16 00:56:59;;;;;;;29.27;15.02;;;20.70;99.90;;;;;;5091401;28;20020;-76
2021/07/16 00:59:26;;;;;;;47.05;17.17;;;20.80;99.90;;;;;;5091049;28;20024;-75
2021/07/16 01:01:55;;;;;;;39.88;16.13;;;20.70;99.90;;;;;;5090947;28;20027;-76
2021/07/16 01:04:21;;;;;;;36.92;15.38;;;20.70;99.90;;;;;;5090017;28;20044;-77
2021/07/16 01:06:47;;;;;;;31.08;15.45;;;20.60;99.90;;;;;;5073190;28;20107;-77
2021/07/16 01:09:13;;;;;;;39.92;16.05;;;20.60;99.90;;;;;;5073567;28;20024;-78
2021/07/16 01:11:38;;;;;;;43.08;16.75;;;20.50;99.90;;;;;;5090712;28;20081;-78
2021/07/16 01:14:04;;;;;;;37.13;15.80;;;20.50;99.90;;;;;;5090807;28;20036;-76
2021/07/16 01:16:30;;;;;;;37.50;16.20;;;20.60;99.90;;;;;;5090630;28;20461;-76
2021/07/16 01:18:56;;;;;;;49.55;16.58;;;20.60;99.90;;;;;;5089599;28;20097;-77
2021/07/16 01:21:24;;;;;;;48.13;15.60;;;20.60;99.90;;;;;;5089744;28;20361;-77
2021/07/16 01:23:51;;;;;;;;;;;20.40;99.90;;;;;;5091915;28;20016;-77
2021/07/16 01:26:17;;;;;;;42.67;15.95;;;20.60;99.90;;;;;;5090744;28;19908;-76
2021/07/16 01:28:43;;;;;;;41.75;15.15;;;20.50;99.90;;;;;;5090562;28;20042;-75
2021/07/16 01:31:09;;;;;;;38.63;14.68;;;20.60;99.90;;;;;;5090851;28;20034;-76
2021/07/16 01:33:35;;;;;;;40.03;15.45;;;20.60;99.90;;;;;;5072716;28;20057;-76
2021/07/16 01:36:00;;;;;;;48.95;16.80;;;20.60;99.90;;;;;;5111434;28;20063;-75
2021/07/16 01:38:27;;;;;;;43.35;16.20;;;20.40;99.90;;;;;;5131766;28;20476;-77
2021/07/16 01:40:54;;;;;;;49.10;16.42;;;20.50;99.90;;;;;;5113300;28;20039;-76
2021/07/16 01:43:20;;;;;;;48.55;14.80;;;20.50;99.90;;;;;;5131431;28;20072;-76
2021/07/16 01:45:46;;;;;;;52.65;16.73;;;20.50;99.90;;;;;;5131341;28;20035;-78
2021/07/16 01:48:14;;;;;;;47.75;14.07;;;20.40;99.90;;;;;;5131654;28;20022;-78
2021/07/16 01:50:49;;;;;;;47.67;15.00;;;20.50;99.90;;;;;;5132526;28;20035;-76
2021/07/16 01:53:18;;;;;;;40.38;13.25;;;20.40;99.90;;;;;;5113677;28;20110;-78
2021/07/16 01:55:44;;;;;;;34.33;13.52;;;20.30;99.90;;;;;;5131150;28;20031;-76
2021/07/16 01:58:14;;;;;;;34.15;13.77;;;20.30;99.90;;;;;;5131367;27;20058;-77
2021/07/16 02:00:45;;;;;;;34.55;11.98;;;20.50;99.90;;;;;;5117057;27;20095;-77
2021/07/16 02:03:12;;;;;;;40.90;13.13;;;20.50;99.90;;;;;;5135458;27;20023;-79
2021/07/16 02:05:41;;;;;;;33.10;11.90;;;20.30;99.90;;;;;;5117087;27;20087;-77
2021/07/16 02:08:18;;;;;;;35.35;12.43;;;20.30;99.90;;;;;;5117117;27;20104;-78
2021/07/16 02:10:50;;;;;;;33.08;11.75;;;20.30;99.90;;;;;;5135119;27;20125;-76
2021/07/16 02:13:17;;;;;;;30.60;11.68;;;20.20;99.90;;;;;;5117053;27;20035;-76
2021/07/16 02:15:44;;;;;;;33.80;11.68;;;20.30;99.90;;;;;;5134889;27;20357;-77
2021/07/16 02:18:10;;;;;;;35.53;11.77;;;20.30;99.90;;;;;;5135445;27;20408;-77
2021/07/16 02:20:38;;;;;;;34.60;12.45;;;20.20;99.90;;;;;;5134811;27;20036;-77
2021/07/16 02:23:13;;;;;;;28.90;11.00;;;20.10;99.90;;;;;;5134821;27;20050;-77
2021/07/16 02:25:39;;;;;;;35.80;11.75;;;20.30;99.90;;;;;;5134882;27;20055;-77
2021/07/16 02:28:08;;;;;;;32.75;12.02;;;20.10;99.90;;;;;;5134819;27;20024;-78
2021/07/16 02:30:33;;;;;;;31.42;10.93;;;20.20;99.90;;;;;;5134625;27;20563;-76
2021/07/16 02:33:01;;;;;;;33.20;11.38;;;20.20;99.90;;;;;;5134867;27;20098;-78
2021/07/16 02:35:29;;;;;;;36.23;12.17;;;20.20;99.90;;;;;;5134368;27;20114;-76
2021/07/16 02:37:55;;;;;;;36.40;11.82;;;20.10;99.90;;;;;;5134691;27;20024;-76
2021/07/16 02:40:21;;;;;;;39.72;11.40;;;20.00;99.90;;;;;;5134441;27;20054;-76
2021/07/16 02:42:47;;;;;;;29.35;11.50;;;19.90;99.90;;;;;;5116626;27;20034;-76
2021/07/16 02:45:15;;;;;;;38.33;11.48;;;19.90;99.90;;;;;;5134897;27;20034;-76
2021/07/16 02:47:41;;;;;;;29.77;11.10;;;20.00;99.90;;;;;;5134411;27;20039;-77
2021/07/16 02:50:12;;;;;;;34.92;11.20;;;20.00;99.90;;;;;;5116395;27;20035;-78
2021/07/16 02:52:38;;;;;;;36.80;11.00;;;19.90;99.90;;;;;;5134339;27;20054;-78
2021/07/16 02:55:05;;;;;;;38.85;12.55;;;19.90;99.90;;;;;;5134187;27;20066;-77
2021/07/16 02:57:31;;;;;;;42.28;11.93;;;20.00;99.90;;;;;;5134242;27;20023;-78
2021/07/16 02:59:56;;;;;;;34.55;11.05;;;19.80;99.90;;;;;;5134698;27;20033;-77
2021/07/16 03:02:24;;;;;;;37.67;12.35;;;19.80;99.90;;;;;;5134221;27;20114;-79
2021/07/16 03:04:50;;;;;;;32.55;10.52;;;19.70;99.90;;;;;;5134163;27;20053;-78
2021/07/16 03:07:17;;;;;;;24.52;9.98;;;19.80;99.90;;;;;;5134090;27;20027;-76
2021/07/16 03:09:42;;;;;;;36.72;11.85;;;19.80;99.90;;;;;;5115491;27;20046;-77
2021/07/16 03:12:08;;;;;;;26.88;10.63;;;19.90;99.90;;;;;;5134814;27;20020;-78
2021/07/16 03:14:33;;;;;;;31.52;10.63;;;19.80;99.90;;;;;;5133921;27;20471;-77
2021/07/16 03:16:59;;;;;;;35.28;10.18;;;19.90;99.90;;;;;;5133855;27;20123;-78
2021/07/16 03:19:25;;;;;;;28.60;10.90;;;19.90;99.90;;;;;;5116170;27;20101;-78
2021/07/16 03:21:50;;;;;;;38.35;11.43;;;19.90;99.90;;;;;;5134335;27;20032;-79
2021/07/16 03:24:18;;;;;;;32.50;11.00;;;19.80;99.90;;;;;;5134131;27;20031;-77
2021/07/16 03:26:43;;;;;;;31.55;11.23;;;19.90;99.90;;;;;;5133807;27;20122;-76
2021/07/16 03:29:09;;;;;;;36.88;11.85;;;19.90;99.90;;;;;;5133708;27;20114;-76
2021/07/16 03:31:35;;;;;;;29.48;11.25;;;19.80;99.90;;;;;;5133931;27;20158;-76
2021/07/16 03:34:00;;;;;;;27.23;11.57;;;19.90;99.90;;;;;;5133494;27;20030;-77
2021/07/16 03:36:26;;;;;;;42.28;11.68;;;19.70;99.90;;;;;;5133456;27;20102;-76
2021/07/16 03:38:52;;;;;;;39.72;12.10;;;19.70;99.90;;;;;;5133864;27;20059;-76
2021/07/16 03:41:18;;;;;;;38.25;11.90;;;19.80;99.90;;;;;;5133366;27;20059;-81
2021/07/16 03:43:44;;;;;;;36.63;12.23;;;19.70;99.90;;;;;;5133312;27;20023;-77
2021/07/16 03:46:09;;;;;;;47.17;13.10;;;19.60;99.90;;;;;;5133470;27;20023;-78
2021/07/16 03:48:35;;;;;;;42.33;12.32;;;19.70;99.90;;;;;;5133303;27;20027;-77
2021/07/16 03:51:02;;;;;;;45.38;11.98;;;19.60;99.90;;;;;;5133484;27;20095;-76
2021/07/16 03:53:27;;;;;;;33.95;12.25;;;19.60;99.90;;;;;;5132968;27;20031;-76
2021/07/16 03:55:53;;;;;;;50.08;12.50;;;19.70;99.90;;;;;;5133404;27;20084;-76
2021/07/16 03:58:18;;;;;;;43.55;12.90;;;19.60;99.90;;;;;;5133642;27;20031;-76
2021/07/16 04:00:44;;;;;;;39.58;12.02;;;19.60;99.90;;;;;;5115002;27;20027;-76
2021/07/16 04:03:10;;;;;;;40.17;12.18;;;19.60;99.90;;;;;;5133219;27;20042;-77
2021/07/16 04:05:37;;;;;;;37.10;12.45;;;19.50;99.90;;;;;;5115126;27;20111;-77
2021/07/16 04:08:04;;;;;;;44.80;11.43;;;19.50;99.90;;;;;;5132807;27;20330;-79
2021/07/16 04:10:32;;;;;;;43.88;11.73;;;19.50;99.90;;;;;;5114836;27;20038;-77
2021/07/16 04:13:04;;;;;;;31.35;11.52;;;19.50;99.90;;;;;;5132625;27;20034;-78
2021/07/16 04:15:30;;;;;;;38.13;11.20;;;19.50;99.90;;;;;;5132441;27;20026;-78
2021/07/16 04:17:58;;;;;;;34.50;10.48;;;19.60;99.90;;;;;;5115148;27;20031;-78
2021/07/16 04:20:24;;;;;;;;;;;19.60;99.90;;;;;;5132996;27;20029;-78
2021/07/16 04:22:50;;;;;;;41.22;11.40;;;19.50;99.90;;;;;;5131719;27;19912;-78
2021/07/16 04:25:17;;;;;;;42.30;10.35;;;19.50;99.90;;;;;;5114249;27;20023;-77
2021/07/16 04:27:44;;;;;;;33.95;11.00;;;19.60;99.90;;;;;;5132522;27;20023;-77
2021/07/16 04:30:11;;;;;;;40.58;11.88;;;19.50;99.90;;;;;;5132829;27;20031;-77
2021/07/16 04:32:40;;;;;;;32.75;10.45;;;19.50;99.90;;;;;;5114495;27;20031;-78
2021/07/16 04:35:07;;;;;;;39.25;9.90;;;19.50;99.90;;;;;;5132337;27;20039;-78
2021/07/16 04:37:35;;;;;;;32.40;9.97;;;19.50;99.90;;;;;;5132208;27;20042;-77
2021/07/16 04:40:05;;;;;;;32.17;10.68;;;19.40;99.90;;;;;;5132289;27;20147;-77
2021/07/16 04:42:31;;;;;;;43.42;11.35;;;19.50;99.90;;;;;;5132401;27;20027;-78
2021/07/16 04:44:57;;;;;;;34.47;10.57;;;19.60;99.90;;;;;;5132516;27;20042;-78
2021/07/16 04:47:22;;;;;;;38.88;10.60;;;19.50;99.90;;;;;;5132166;27;20047;-76
2021/07/16 04:49:48;;;;;;;32.92;11.13;;;19.50;99.90;;;;;;5131913;27;20049;-77
2021/07/16 04:52:14;;;;;;;34.88;10.45;;;19.30;99.90;;;;;;5131944;27;20046;-77
2021/07/16 04:54:39;;;;;;;32.53;9.63;;;19.30;99.90;;;;;;5131878;27;20052;-78
2021/07/16 04:57:08;;;;;;;36.40;11.40;;;19.40;99.90;;;;;;5132524;27;20020;-77
2021/07/16 04:59:35;;;;;;;38.42;11.30;;;19.40;99.90;;;;;;5132102;27;20042;-77
2021/07/16 05:02:00;;;;;;;29.65;9.23;;;19.30;99.90;;;;;;5131921;27;20047;-77
2021/07/16 05:04:26;;;;;;;40.33;10.73;;;19.40;99.90;;;;;;5132027;27;20528;-78
2021/07/16 05:06:51;;;;;;;35.38;9.52;;;19.30;99.90;;;;;;5113471;27;20031;-76
2021/07/16 05:09:17;;;;;;;36.50;11.30;;;19.30;99.90;;;;;;5111843;28;20039;-78
2021/07/16 05:11:43;;;;;;;34.53;11.85;;;19.40;99.90;;;;;;5112037;28;20028;-77
2021/07/16 05:14:09;;;;;;;36.05;11.32;;;19.40;99.90;;;;;;5111688;28;20032;-80
2021/07/16 05:16:35;;;;;;;30.52;9.25;;;19.40;99.90;;;;;;5111544;28;20028;-82
2021/07/16 05:19:00;;;;;;;29.08;9.40;;;19.40;99.90;;;;;;5102355;28;20035;-84
2021/07/16 05:21:26;;;;;;;25.80;8.98;;;19.60;99.90;;;;;;5073091;28;20062;-83
2021/07/16 05:23:52;;;;;;;30.92;9.88;;;19.60;99.90;;;;;;5091470;28;20104;-82
2021/07/16 05:26:17;;;;;;;38.05;9.35;;;19.60;99.90;;;;;;5091021;28;20028;-84
2021/07/16 05:28:45;;;;;;;28.70;9.35;;;19.70;99.90;;;;;;5073187;28;20051;-79
2021/07/16 05:31:11;;;;;;;31.63;9.30;;;19.70;99.90;;;;;;5091188;28;20035;-80
2021/07/16 05:33:36;;;;;;;31.75;9.85;;;19.70;99.90;;;;;;5090842;28;20107;-77
2021/07/16 05:36:02;;;;;;;30.80;9.77;;;19.70;99.90;;;;;;5074078;28;20533;-86
2021/07/16 05:38:28;;;;;;;26.27;8.45;;;19.70;99.90;;;;;;5091178;28;20034;-82
2021/07/16 05:40:54;;;;;;;35.83;9.77;;;19.80;99.90;;;;;;5059075;28;20124;-82
2021/07/16 05:43:21;;;;;;;33.75;10.98;;;19.80;99.90;;;;;;5050880;28;20470;-80
2021/07/16 05:45:46;;;;;;;27.52;10.65;;;19.80;99.90;;;;;;5050630;28;20035;-77
2021/07/16 05:48:12;;;;;;;40.55;11.68;;;19.90;99.90;;;;;;5051310;28;20013;-77
2021/07/16 05:50:39;;;;;;;41.05;13.75;;;19.90;99.90;;;;;;5050704;28;20374;-76
2021/07/16 05:53:06;;;;;;;45.60;14.10;;;19.90;99.90;;;;;;5050715;28;20425;-76
2021/07/16 05:55:32;;;;;;;42.35;14.40;;;19.90;99.90;;;;;;5050462;28;20064;-82
2021/07/16 05:57:58;;;;;;;44.88;15.25;;;19.90;99.90;;;;;;5050624;28;20036;-76
2021/07/16 06:00:23;;;;;;;44.45;14.23;;;19.90;99.90;;;;;;5050816;28;20039;-81
2021/07/16 06:02:49;;;;;;;37.60;15.38;;;19.80;99.90;;;;;;5057787;28;20025;-83
2021/07/16 06:05:16;;;;;;;43.55;12.98;;;19.80;99.90;;;;;;5055006;28;20021;-85
2021/07/16 06:07:42;;;;;;;52.78;15.38;;;19.80;99.90;;;;;;5053048;28;20021;-81
2021/07/16 06:10:09;;;;;;;39.20;15.23;;;19.70;99.90;;;;;;5052800;28;20079;-85
2021/07/16 06:12:38;;;;;;;47.13;16.52;;;19.70;99.90;;;;;;5050570;28;20639;-83
2021/07/16 06:15:05;;;;;;;47.38;15.63;;;19.70;99.90;;;;;;5051254;28;20402;-81
2021/07/16 06:17:32;;;;;;;54.40;15.52;;;19.60;99.90;;;;;;5050858;28;20036;-81
2021/07/16 06:19:58;;;;;;;37.78;14.80;;;19.70;99.90;;;;;;5051959;28;20463;-81
2021/07/16 06:22:24;;;;;;;42.78;14.10;;;19.60;99.90;;;;;;5050119;28;20048;-82
2021/07/16 06:24:50;;;;;;;51.60;14.88;;;19.70;99.90;;;;;;5051930;28;20021;-81
2021/07/16 06:27:15;;;;;;;46.92;14.63;;;19.70;99.90;;;;;;5051830;28;20029;-84
2021/07/16 06:29:41;;;;;;;45.25;15.27;;;19.60;99.90;;;;;;5051631;28;20030;-84
2021/07/16 06:32:07;;;;;;;42.70;13.75;;;19.60;99.90;;;;;;5051515;28;20040;-80
2021/07/16 06:34:32;;;;;;;41.97;13.15;;;19.60;99.90;;;;;;5051747;28;20106;-84
2021/07/16 06:36:58;;;;;;;32.60;11.95;;;19.60;99.90;;;;;;5051931;28;20121;-85
2021/07/16 06:39:24;;;;;;;35.10;12.85;;;19.50;99.90;;;;;;5053892;28;20448;-85
2021/07/16 06:41:49;;;;;;;39.80;12.52;;;19.60;99.90;;;;;;5109459;28;20052;-83
2021/07/16 06:44:15;;;;;;;34.15;12.93;;;19.80;99.90;;;;;;5111252;28;20051;-84
2021/07/16 06:46:41;;;;;;;41.90;13.60;;;19.80;99.90;;;;;;5114384;28;20282;-82
2021/07/16 06:49:07;;;;;;;38.70;11.50;;;19.90;99.90;;;;;;5096889;28;20024;-84
2021/07/16 06:51:33;;;;;;;45.30;12.77;;;19.90;99.90;;;;;;5114648;28;20027;-83
2021/07/16 06:54:00;;;;;;;46.55;13.77;;;19.90;99.90;;;;;;5114832;28;20023;-83
2021/07/16 06:56:26;;;;;;;34.35;11.57;;;19.90;99.90;;;;;;5096081;28;20024;-81
2021/07/16 06:58:52;;;;;;;48.75;14.93;;;19.90;99.90;;;;;;5114474;28;20039;-83
2021/07/16 07:01:22;;;;;;;39.00;11.40;;;19.80;99.90;;;;;;5114410;28;20027;-84
2021/07/16 07:03:48;;;;;;;37.45;12.10;;;19.90;99.90;;;;;;5095847;28;20031;-83
2021/07/16 07:06:14;;;;;;;30.88;10.57;;;19.90;99.90;;;;;;5114380;28;20035;-83
2021/07/16 07:08:39;;;;;;;41.63;11.18;;;20.00;99.90;;;;;;5113936;28;20114;-82
2021/07/16 07:11:06;;;;;;;39.03;10.25;;;20.10;99.90;;;;;;5113978;28;20226;-83
2021/07/16 07:13:33;;;;;;;38.55;11.88;;;20.10;99.90;;;;;;5113822;28;20070;-81
2021/07/16 07:15:59;;;;;;;31.73;10.70;;;20.10;99.90;;;;;;5094820;28;20065;-85
2021/07/16 07:18:25;;;;;;;38.13;11.90;;;20.10;99.90;;;;;;5113466;28;20027;-80
2021/07/16 07:20:51;;;;;;;34.50;11.05;;;20.10;99.90;;;;;;5113867;28;20035;-80
2021/07/16 07:23:17;;;;;;;37.22;11.77;;;20.20;99.90;;;;;;5113338;28;20032;-80
2021/07/16 07:25:43;;;;;;;43.75;12.57;;;20.10;99.90;;;;;;5113325;28;20032;-79
2021/07/16 07:28:09;;;;;;;33.88;11.43;;;20.10;99.90;;;;;;5113485;28;20084;-80
2021/07/16 07:30:34;;;;;;;46.17;12.15;;;20.10;99.90;;;;;;5113670;28;20024;-79
2021/07/16 07:33:00;;;;;;;44.30;11.43;;;20.10;99.90;;;;;;5096037;28;20092;-77
2021/07/16 07:35:26;;;;;;;42.42;12.40;;;20.20;99.90;;;;;;5113324;28;20035;-79
2021/07/16 07:37:51;;;;;;;42.03;12.40;;;20.20;99.90;;;;;;5113783;28;20096;-80
2021/07/16 07:40:18;;;;;;;42.45;12.35;;;20.20;99.90;;;;;;5112874;28;20035;-79
2021/07/16 07:42:44;;;;;;;32.63;11.48;;;20.30;99.90;;;;;;5113231;28;20465;-78
2021/07/16 07:45:11;;;;;;;40.20;12.07;;;20.20;99.90;;;;;;5095906;28;20353;-79
2021/07/16 07:47:37;;;;;;;42.85;11.82;;;20.20;99.90;;;;;;5113090;28;20031;-79
2021/07/16 07:50:12;;;;;;;44.10;10.82;;;20.20;99.90;;;;;;5113193;28;20084;-80
2021/07/16 07:52:37;;;;;;;37.83;10.48;;;20.30;99.90;;;;;;5095389;28;20032;-79
2021/07/16 07:55:04;;;;;;;35.13;9.80;;;20.30;99.90;;;;;;5095064;28;20350;-79
2021/07/16 07:57:29;;;;;;;33.13;10.20;;;20.20;99.90;;;;;;5114578;28;20094;-80
2021/07/16 07:59:56;;;;;;;31.35;10.23;;;20.30;99.90;;;;;;5096503;28;20047;-79
2021/07/16 08:02:21;;;;;;;38.15;10.35;;;20.30;99.90;;;;;;5096519;28;20063;-79
2021/07/16 08:04:47;;;;;;;35.38;10.38;;;20.40;99.90;;;;;;5114644;28;20027;-82
2021/07/16 08:07:12;;;;;;;34.97;10.35;;;20.40;99.90;;;;;;5100656;28;20454;-79
2021/07/16 08:09:38;;;;;;;38.28;10.68;;;20.50;99.90;;;;;;5112516;28;20102;-77
2021/07/16 08:12:06;;;;;;;30.05;11.00;;;20.50;99.90;;;;;;5113634;28;20024;-86
2021/07/16 08:14:32;;;;;;;30.23;9.55;;;20.60;99.90;;;;;;5112266;28;20032;-79
2021/07/16 08:16:57;;;;;;;31.35;9.73;;;20.60;99.90;;;;;;5112633;28;20035;-81
2021/07/16 08:19:23;;;;;;;33.83;9.32;;;20.50;99.90;;;;;;5094533;28;20043;-79
2021/07/16 08:21:54;;;;;;;41.15;11.25;;;20.50;99.90;;;;;;5112528;28;20039;-82
2021/07/16 08:24:22;;;;;;;28.65;9.68;;;20.50;99.90;;;;;;5094869;28;20419;-80
2021/07/16 08:26:48;;;;;;;32.90;9.82;;;20.50;99.90;;;;;;5112708;28;20036;-82
2021/07/16 08:29:15;;;;;;;32.17;9.88;;;20.40;99.90;;;;;;5112971;28;20403;-80
2021/07/16 08:31:42;;;;;;;39.63;11.00;;;20.40;99.90;;;;;;5112242;28;20036;-79
2021/07/16 08:34:08;;;;;;;39.53;10.98;;;20.40;99.90;;;;;;5112015;28;20031;-82
2021/07/16 08:36:34;;;;;;;45.00;11.23;;;20.50;99.90;;;;;;5111886;28;20446;-81
2021/07/16 08:39:00;;;;;;;34.92;9.93;;;20.60;99.90;;;;;;5094283;28;20023;-78
2021/07/16 08:41:26;;;;;;;36.95;10.65;;;20.60;99.90;;;;;;5111998;28;20058;-81
2021/07/16 08:43:52;;;;;;;36.92;9.70;;;20.60;99.90;;;;;;5111717;28;20028;-78
2021/07/16 08:46:19;;;;;;;33.88;10.55;;;20.70;99.90;;;;;;5111866;28;20028;-83
2021/07/16 08:48:47;;;;;;;39.20;13.63;;;20.70;99.90;;;;;;5111729;28;20636;-82
2021/07/16 08:51:18;;;;;;;27.48;10.60;;;20.60;99.90;;;;;;5112397;28;20023;-80
2021/07/16 08:53:50;;;;;;;35.58;9.70;;;20.50;99.90;;;;;;5111874;28;20340;-81
2021/07/16 08:56:17;;;;;;;24.52;9.55;;;20.60;99.90;;;;;;5111785;28;20074;-82
2021/07/16 08:58:43;;;;;;;28.55;9.32;;;20.70;99.90;;;;;;5111720;28;20039;-82
2021/07/16 09:01:10;;;;;;;24.95;8.95;;;20.60;99.90;;;;;;5111605;28;20084;-82
2021/07/16 09:03:39;;;;;;;34.33;11.35;;;20.50;99.90;;;;;;5111902;28;20027;-82
2021/07/16 09:06:06;;;;;;;28.98;10.40;;;20.60;99.90;;;;;;5112042;28;20428;-80
2021/07/16 09:08:31;;;;;;;31.23;10.10;;;20.60;99.90;;;;;;5111207;28;20035;-81
2021/07/16 09:10:59;;;;;;;26.35;10.13;;;20.60;99.90;;;;;;5111486;28;20473;-81
2021/07/16 09:13:27;;;;;;;23.85;8.98;;;20.60;99.90;;;;;;5111380;28;20032;-82
2021/07/16 09:15:59;;;;;;;27.83;10.23;;;20.70;99.90;;;;;;5111449;28;20049;-78
2021/07/16 09:18:27;;;;;;;31.05;10.02;;;20.80;99.90;;;;;;5111410;28;20030;-79
2021/07/16 09:21:02;;;;;;;;;;;20.70;99.90;;;;;;5094211;28;20026;-82
2021/07/16 09:23:45;;;;;;;30.17;9.80;;;20.80;99.90;;;;;;5110965;28;19908;-84
2021/07/16 09:26:13;;;;;;;32.28;10.50;;;20.70;99.90;;;;;;5111351;28;20040;-83
2021/07/16 09:28:47;;;;;;;31.65;9.90;;;20.80;99.90;;;;;;5093347;28;20469;-82
2021/07/16 09:31:17;;;;;;;25.27;10.00;;;20.70;99.90;;;;;;5111453;28;20457;-83
2021/07/16 09:33:50;;;;;;;35.20;10.23;;;20.70;99.90;;;;;;5111400;28;20035;-84
2021/07/16 09:36:25;;;;;;;27.27;10.98;;;20.90;99.90;;;;;;5112120;28;20382;-85
2021/07/16 09:38:54;;;;;;;34.72;10.43;;;20.90;99.90;;;;;;5111638;28;20062;-84
2021/07/16 09:41:19;;;;;;;27.88;10.57;;;21.00;99.90;;;;;;5111153;28;20484;-83
2021/07/16 09:43:50;;;;;;;29.92;11.00;;;21.10;99.90;;;;;;5092943;28;20028;-82
2021/07/16 09:46:16;;;;;;;29.00;9.30;;;21.00;99.90;;;;;;5111251;28;20432;-83
2021/07/16 09:48:43;;;;;;;31.50;9.50;;;21.10;99.90;;;;;;5111434;28;20123;-84
2021/07/16 09:51:23;;;;;;;27.80;9.75;;;21.20;99.90;;;;;;5093981;28;20016;-85
2021/07/16 09:53:52;;;;;;;21.23;9.40;;;21.10;99.90;;;;;;5093501;28;20101;-86
2021/07/16 09:56:25;;;;;;;26.98;9.05;;;21.20;99.90;;;;;;5111038;28;20126;-82
2021/07/16 09:59:17;;;;;;;26.50;9.85;;;21.40;99.90;;;;;;5110877;28;20161;-84
2021/07/16 10:01:50;;;;;;;20.35;8.75;;;21.50;99.90;;;;;;5110920;28;20039;-83
2021/07/16 10:04:17;;;;;;;33.67;9.93;;;21.50;99.90;;;;;;5092505;28;20027;-82
2021/07/16 10:06:43;;;;;;;25.27;9.48;;;21.70;99.90;;;;;;5092883;28;20047;-84
2021/07/16 10:09:09;;;;;;;35.47;9.85;;;21.90;99.90;;;;;;5112098;28;20023;-83
2021/07/16 10:11:37;;;;;;;34.58;14.23;;;22.00;99.70;;;;;;5115637;28;20027;-89
2021/07/16 10:14:03;;;;;;;26.30;10.40;;;22.10;99.50;;;;;;5116015;28;20425;-82
2021/07/16 10:16:30;;;;;;;37.35;11.07;;;22.00;99.30;;;;;;5111216;28;20350;-87
2021/07/16 10:18:56;;;;;;;31.38;10.13;;;22.00;99.20;;;;;;5111644;28;20474;-84
2021/07/16 10:21:23;;;;;;;38.03;10.98;;;21.90;99.10;;;;;;5114790;28;20348;-79
2021/07/16 10:23:54;;;;;;;26.98;9.52;;;21.80;99.00;;;;;;5115676;28;20451;-85
2021/07/16 10:26:22;;;;;;;25.75;9.88;;;21.90;99.20;;;;;;5115180;28;20075;-82
2021/07/16 10:28:47;;;;;;;;;;;22.10;99.10;;;;;;5115679;28;20031;-85
2021/07/16 10:31:29;;;;;;;33.42;10.52;;;22.40;98.80;;;;;;5115212;28;19918;-82
2021/07/16 10:34:00;;;;;;;28.60;9.18;;;22.50;98.70;;;;;;5115108;28;20028;-87
2021/07/16 10:36:37;;;;;;;28.30;8.43;;;22.60;98.60;;;;;;5115002;28;20028;-84
2021/07/16 10:39:04;;;;;;;29.70;8.35;;;22.60;98.50;;;;;;5115054;28;20015;-86
2021/07/16 10:41:31;;;;;;;21.88;7.80;;;22.80;98.60;;;;;;5095894;28;20156;-85
2021/07/16 10:43:56;;;;;;;34.57;10.17;;;23.00;98.40;;;;;;5114579;28;20108;-86
2021/07/16 10:46:36;;;;;;;28.17;7.97;;;22.90;97.90;;;;;;5114674;28;20039;-85
2021/07/16 10:49:05;;;;;;;27.98;8.30;;;23.00;98.00;;;;;;5114559;28;20042;-83
2021/07/16 10:51:33;;;;;;;27.23;8.73;;;23.20;98.10;;;;;;5113925;28;20689;-86
2021/07/16 10:54:01;;;;;;;28.23;7.72;;;23.20;97.80;;;;;;5114774;28;20100;-87
2021/07/16 10:57:11;;;;;;;26.92;7.50;;;23.20;97.70;;;;;;5096560;28;20035;-86
2021/07/16 10:59:45;;;;;;;26.10;7.60;;;23.10;97.70;;;;;;5093907;28;20420;-78
2021/07/16 11:02:35;;;;;;;31.40;8.18;;;23.20;97.80;;;;;;5095490;28;20035;-80
2021/07/16 11:05:01;;;;;;;22.95;7.85;;;23.00;97.70;;;;;;5113796;28;20058;-81
2021/07/16 11:07:35;;;;;;;32.83;10.52;;;23.00;97.80;;;;;;5114341;28;20055;-81
2021/07/16 11:10:01;;;;;;;30.58;8.50;;;22.90;97.90;;;;;;5095826;28;20038;-82
2021/07/16 11:12:33;;;;;;;31.00;7.65;;;22.80;98.00;;;;;;5095548;28;20016;-79
2021/07/16 11:14:59;;;;;;;23.73;7.40;;;22.90;98.00;;;;;;5096123;28;20023;-82
2021/07/16 11:17:27;;;;;;;24.30;8.23;;;22.80;98.20;;;;;;5113565;28;20465;-80
2021/07/16 11:20:08;;;;;;;33.33;9.45;;;22.80;98.00;;;;;;5113441;28;20028;-81
2021/07/16 11:22:33;;;;;;;28.95;8.18;;;23.00;98.20;;;;;;5113295;28;20034;-79
2021/07/16 11:24:59;;;;;;;25.42;8.32;;;23.00;98.00;;;;;;5113621;28;20019;-80
2021/07/16 11:27:26;;;;;;;25.35;8.52;;;23.10;98.10;;;;;;5113577;28;20094;-79
2021/07/16 11:29:53;;;;;;;28.05;8.32;;;23.00;98.00;;;;;;5113805;28;20048;-80
2021/07/16 11:32:27;;;;;;;28.08;8.15;;;22.90;98.00;;;;;;5094391;28;20058;-81
2021/07/16 11:35:03;;;;;;;21.88;8.07;;;22.80;98.00;;;;;;5094612;28;20055;-79
2021/07/16 11:37:34;;;;;;;45.78;17.63;;;22.90;98.10;;;;;;5112813;28;20031;-79
2021/07/16 11:40:11;;;;;;;25.30;8.20;;;23.00;98.10;;;;;;5113238;28;20036;-78
2021/07/16 11:42:40;;;;;;;28.65;8.18;;;23.00;98.00;;;;;;5113028;28;20020;-76
2021/07/16 11:45:09;;;;;;;25.70;8.60;;;23.00;98.10;;;;;;5095518;28;20494;-78
2021/07/16 11:47:35;;;;;;;25.50;8.00;;;22.90;98.20;;;;;;5112927;28;20487;-77
2021/07/16 11:50:04;;;;;;;20.33;8.20;;;23.10;98.40;;;;;;5113074;28;20467;-80
2021/07/16 11:52:32;;;;;;;29.17;7.35;;;23.10;98.20;;;;;;5094867;28;20484;-78
2021/07/16 11:55:13;;;;;;;30.30;8.18;;;23.20;98.10;;;;;;5094517;28;20039;-78
2021/07/16 11:57:48;;;;;;;29.08;9.50;;;23.20;98.20;;;;;;5112588;28;20458;-77
2021/07/16 12:00:15;;;;;;;32.97;12.85;;;22.90;98.40;;;;;;5112753;28;20102;-77
2021/07/16 12:02:41;;;;;;;31.42;11.25;;;23.00;98.50;;;;;;5112304;28;20096;-76
2021/07/16 12:05:07;;;;;;;27.13;9.63;;;23.10;98.40;;;;;;5112455;28;20028;-78
2021/07/16 12:07:37;;;;;;;23.75;8.65;;;23.10;98.30;;;;;;5112494;28;20031;-76
2021/07/16 12:10:17;;;;;;;27.55;8.88;;;23.10;98.30;;;;;;5112461;28;20035;-78
2021/07/16 12:12:44;;;;;;;34.50;10.05;;;22.90;98.30;;;;;;5112015;28;20031;-79
2021/07/16 12:15:15;;;;;;;29.00;9.45;;;22.90;98.40;;;;;;5095362;28;20085;-78
2021/07/16 12:17:49;;;;;;;32.83;9.68;;;23.00;98.60;;;;;;5114179;28;20119;-81
2021/07/16 12:20:15;;;;;;;31.83;9.02;;;23.00;98.60;;;;;;5112986;28;20072;-84
2021/07/16 12:22:43;;;;;;;29.17;8.48;;;23.00;98.40;;;;;;5112563;28;20042;-81
2021/07/16 12:25:11;;;;;;;34.33;9.52;;;23.00;98.50;;;;;;5112419;28;20039;-78
2021/07/16 12:27:37;;;;;;;35.45;9.38;;;22.90;98.60;;;;;;5112447;28;20106;-78
2021/07/16 12:30:06;;;;;;;33.72;9.43;;;22.80;98.70;;;;;;5112415;28;20169;-77
2021/07/16 12:32:45;;;;;;;34.40;9.82;;;22.80;98.70;;;;;;5112033;28;20032;-77